sensor_id;sensor_type;location;lat;lon;timestamp;pressure;altitude;pressure_sealevel;temperature;humidity
35307;BME280;21420;52.196;21.416;2023-04-25T00:01:51;99007.95;;;10.66;48.63
35307;BME280;21420;52.196;21.416;2023-04-25T00:04:18;99009.77;;;10.57;48.75
35307;BME280;21420;52.196;21.416;2023-04-25T00:06:46;99012.23;;;10.50;48.92
35307;BME280;21420;52.196;21.416;2023-04-25T00:09:12;99012.92;;;10.44;49.08
35307;BME280;21420;52.196;21.416;2023-04-25T00:11:40;99012.02;;;10.40;49.17
35307;BME280;21420;52.196;21.416;2023-04-25T00:14:06;99013.37;;;10.37;49.32
35307;BME280;21420;52.196;21.416;2023-04-25T00:16:34;99017.44;;;10.32;49.46
35307;BME280;21420;52.196;21.416;2023-04-25T00:19:02;99017.00;;;10.29;49.60
35307;BME280;21420;52.196;21.416;2023-04-25T00:21:30;99012.53;;;10.25;49.68
35307;BME280;21420;52.196;21.416;2023-04-25T00:23:58;99012.21;;;10.19;49.72
35307;BME280;21420;52.196;21.416;2023-04-25T00:26:25;99015.86;;;10.13;49.79
35307;BME280;21420;52.196;21.416;2023-04-25T00:28:52;99016.92;;;10.07;49.93
35307;BME280;21420;52.196;21.416;2023-04-25T00:31:18;99016.23;;;10.03;50.08
35307;BME280;21420;52.196;21.416;2023-04-25T00:33:45;99018.11;;;9.98;50.19
35307;BME280;21420;52.196;21.416;2023-04-25T00:36:12;99017.90;;;9.95;50.38
35307;BME280;21420;52.196;21.416;2023-04-25T00:38:39;99015.95;;;9.95;50.54
35307;BME280;21420;52.196;21.416;2023-04-25T00:41:07;99015.13;;;9.98;50.69
35307;BME280;21420;52.196;21.416;2023-04-25T00:43:36;99010.39;;;9.99;50.71
35307;BME280;21420;52.196;21.416;2023-04-25T00:46:03;99007.34;;;9.99;50.92
35307;BME280;21420;52.196;21.416;2023-04-25T00:48:29;99007.13;;;10.00;51.05
35307;BME280;21420;52.196;21.416;2023-04-25T00:50:59;99006.18;;;10.05;51.13
35307;BME280;21420;52.196;21.416;2023-04-25T00:53:26;99004.31;;;10.10;51.27
35307;BME280;21420;52.196;21.416;2023-04-25T00:55:54;99002.38;;;10.11;51.34
35307;BME280;21420;52.196;21.416;2023-04-25T00:58:22;98999.83;;;10.13;51.40
35307;BME280;21420;52.196;21.416;2023-04-25T01:00:50;98999.79;;;10.15;51.48
35307;BME280;21420;52.196;21.416;2023-04-25T01:03:18;98997.05;;;10.15;51.58
35307;BME280;21420;52.196;21.416;2023-04-25T01:05:48;99000.70;;;10.13;51.65
35307;BME280;21420;52.196;21.416;2023-04-25T01:08:15;98998.78;;;10.15;51.83
35307;BME280;21420;52.196;21.416;2023-04-25T01:10:42;98995.88;;;10.20;51.88
35307;BME280;21420;52.196;21.416;2023-04-25T01:13:08;98993.77;;;10.24;51.95
35307;BME280;21420;52.196;21.416;2023-04-25T01:15:35;98990.15;;;10.28;52.05
35307;BME280;21420;52.196;21.416;2023-04-25T01:18:04;98985.82;;;10.30;52.18
35307;BME280;21420;52.196;21.416;2023-04-25T01:20:33;98977.09;;;10.31;52.16
35307;BME280;21420;52.196;21.416;2023-04-25T01:23:00;98974.92;;;10.33;52.14
35307;BME280;21420;52.196;21.416;2023-04-25T01:25:30;98971.32;;;10.32;52.18
35307;BME280;21420;52.196;21.416;2023-04-25T01:27:57;98966.11;;;10.29;52.18
35307;BME280;21420;52.196;21.416;2023-04-25T01:30:28;98964.70;;;10.26;52.25
35307;BME280;21420;52.196;21.416;2023-04-25T01:32:56;98964.70;;;10.20;52.26
35307;BME280;21420;52.196;21.416;2023-04-25T01:35:24;98963.58;;;10.14;52.26
35307;BME280;21420;52.196;21.416;2023-04-25T01:37:53;98960.64;;;10.06;52.29
35307;BME280;21420;52.196;21.416;2023-04-25T01:40:21;98962.29;;;10.01;52.35
35307;BME280;21420;52.196;21.416;2023-04-25T01:42:50;98963.89;;;9.99;52.48
35307;BME280;21420;52.196;21.416;2023-04-25T01:45:18;98964.25;;;10.01;52.75
35307;BME280;21420;52.196;21.416;2023-04-25T01:47:45;98967.65;;;10.04;52.75
35307;BME280;21420;52.196;21.416;2023-04-25T01:50:17;98972.30;;;10.07;52.90
35307;BME280;21420;52.196;21.416;2023-04-25T01:52:45;98973.36;;;10.10;53.01
35307;BME280;21420;52.196;21.416;2023-04-25T01:55:12;98968.20;;;10.13;53.03
35307;BME280;21420;52.196;21.416;2023-04-25T01:57:48;98967.50;;;10.15;53.18
35307;BME280;21420;52.196;21.416;2023-04-25T02:00:15;98967.28;;;10.16;53.21
35307;BME280;21420;52.196;21.416;2023-04-25T02:02:41;98969.47;;;10.16;53.24
35307;BME280;21420;52.196;21.416;2023-04-25T02:05:36;98965.39;;;10.15;53.25
35307;BME280;21420;52.196;21.416;2023-04-25T02:08:06;98964.78;;;10.10;53.21
35307;BME280;21420;52.196;21.416;2023-04-25T02:10:34;98970.29;;;10.08;53.33
35307;BME280;21420;52.196;21.416;2023-04-25T02:13:08;98968.34;;;10.08;53.45
35307;BME280;21420;52.196;21.416;2023-04-25T02:19:10;98965.50;;;10.01;53.64
35307;BME280;21420;52.196;21.416;2023-04-25T02:21:37;98963.05;;;9.95;53.74
35307;BME280;21420;52.196;21.416;2023-04-25T02:24:04;98962.56;;;9.90;53.71
35307;BME280;21420;52.196;21.416;2023-04-25T02:26:32;98962.85;;;9.83;53.78
35307;BME280;21420;52.196;21.416;2023-04-25T02:28:59;98966.04;;;9.77;53.85
35307;BME280;21420;52.196;21.416;2023-04-25T02:31:26;98962.86;;;9.74;54.02
35307;BME280;21420;52.196;21.416;2023-04-25T02:33:52;98964.73;;;9.70;54.10
35307;BME280;21420;52.196;21.416;2023-04-25T02:36:19;98967.19;;;9.67;54.13
35307;BME280;21420;52.196;21.416;2023-04-25T02:38:47;98966.98;;;9.65;54.28
35307;BME280;21420;52.196;21.416;2023-04-25T02:41:14;98968.39;;;9.65;54.36
35307;BME280;21420;52.196;21.416;2023-04-25T02:43:40;98967.34;;;9.63;54.41
35307;BME280;21420;52.196;21.416;2023-04-25T02:46:07;98964.48;;;9.59;54.43
35307;BME280;21420;52.196;21.416;2023-04-25T02:48:34;98963.95;;;9.56;54.54
35307;BME280;21420;52.196;21.416;2023-04-25T02:51:00;98965.77;;;9.53;54.59
35307;BME280;21420;52.196;21.416;2023-04-25T02:53:27;98964.63;;;9.50;54.65
35307;BME280;21420;52.196;21.416;2023-04-25T02:55:54;98969.04;;;9.49;54.70
35307;BME280;21420;52.196;21.416;2023-04-25T02:58:24;98977.27;;;9.46;54.76
35307;BME280;21420;52.196;21.416;2023-04-25T03:00:52;98979.89;;;9.40;54.88
35307;BME280;21420;52.196;21.416;2023-04-25T03:03:18;98978.16;;;9.40;55.08
35307;BME280;21420;52.196;21.416;2023-04-25T03:05:51;98973.21;;;9.42;55.09
35307;BME280;21420;52.196;21.416;2023-04-25T03:08:22;98968.88;;;9.44;55.21
35307;BME280;21420;52.196;21.416;2023-04-25T03:10:49;98966.46;;;9.44;55.26
35307;BME280;21420;52.196;21.416;2023-04-25T03:13:17;98969.71;;;9.43;55.30
35307;BME280;21420;52.196;21.416;2023-04-25T03:15:45;98970.63;;;9.41;55.32
35307;BME280;21420;52.196;21.416;2023-04-25T03:18:11;98964.36;;;9.40;55.38
35307;BME280;21420;52.196;21.416;2023-04-25T03:20:38;98969.33;;;9.39;55.47
35307;BME280;21420;52.196;21.416;2023-04-25T03:23:08;98972.59;;;9.37;55.52
35307;BME280;21420;52.196;21.416;2023-04-25T03:25:35;98972.55;;;9.36;55.56
35307;BME280;21420;52.196;21.416;2023-04-25T03:28:03;98969.28;;;9.36;55.68
35307;BME280;21420;52.196;21.416;2023-04-25T03:30:29;98970.79;;;9.37;55.74
35307;BME280;21420;52.196;21.416;2023-04-25T03:32:57;98973.33;;;9.40;55.80
35307;BME280;21420;52.196;21.416;2023-04-25T03:35:23;98972.83;;;9.42;55.88
35307;BME280;21420;52.196;21.416;2023-04-25T03:37:52;98972.05;;;9.47;56.05
35307;BME280;21420;52.196;21.416;2023-04-25T03:40:23;98974.71;;;9.51;56.10
35307;BME280;21420;52.196;21.416;2023-04-25T03:43:22;98968.96;;;9.57;56.07
35307;BME280;21420;52.196;21.416;2023-04-25T03:45:59;98969.04;;;9.66;56.23
35307;BME280;21420;52.196;21.416;2023-04-25T03:48:26;98976.77;;;9.74;56.25
35307;BME280;21420;52.196;21.416;2023-04-25T03:50:53;98979.59;;;9.79;56.31
35307;BME280;21420;52.196;21.416;2023-04-25T03:53:20;98982.48;;;9.84;56.28
35307;BME280;21420;52.196;21.416;2023-04-25T03:56:16;98985.15;;;9.90;56.32
35307;BME280;21420;52.196;21.416;2023-04-25T03:58:44;98991.21;;;9.97;56.48
35307;BME280;21420;52.196;21.416;2023-04-25T04:01:11;98991.50;;;10.05;56.65
35307;BME280;21420;52.196;21.416;2023-04-25T04:03:38;98989.77;;;10.14;56.61
35307;BME280;21420;52.196;21.416;2023-04-25T04:06:06;98993.74;;;10.24;56.76
35307;BME280;21420;52.196;21.416;2023-04-25T04:08:36;98993.11;;;10.31;56.74
35307;BME280;21420;52.196;21.416;2023-04-25T04:11:03;98995.65;;;10.39;56.68
35307;BME280;21420;52.196;21.416;2023-04-25T04:13:31;98998.67;;;10.47;56.82
35307;BME280;21420;52.196;21.416;2023-04-25T04:15:58;99001.83;;;10.55;56.80
35307;BME280;21420;52.196;21.416;2023-04-25T04:18:25;99004.52;;;10.62;56.84
35307;BME280;21420;52.196;21.416;2023-04-25T04:20:52;99004.01;;;10.70;56.86
35307;BME280;21420;52.196;21.416;2023-04-25T04:23:19;99005.00;;;10.80;56.94
35307;BME280;21420;52.196;21.416;2023-04-25T04:25:46;99006.22;;;10.89;56.97
35307;BME280;21420;52.196;21.416;2023-04-25T04:28:32;99007.29;;;10.99;57.12
35307;BME280;21420;52.196;21.416;2023-04-25T04:31:11;99010.89;;;11.06;57.04
35307;BME280;21420;52.196;21.416;2023-04-25T04:33:38;99009.86;;;11.11;57.01
35307;BME280;21420;52.196;21.416;2023-04-25T04:36:05;99011.42;;;11.18;56.98
35307;BME280;21420;52.196;21.416;2023-04-25T04:38:33;99009.94;;;11.24;57.09
35307;BME280;21420;52.196;21.416;2023-04-25T04:41:02;99011.67;;;11.31;57.15
35307;BME280;21420;52.196;21.416;2023-04-25T04:43:58;99014.02;;;11.39;57.13
35307;BME280;21420;52.196;21.416;2023-04-25T04:46:52;99012.30;;;11.45;57.25
35307;BME280;21420;52.196;21.416;2023-04-25T04:49:39;99012.77;;;11.53;57.27
35307;BME280;21420;52.196;21.416;2023-04-25T04:52:19;99015.89;;;11.59;57.21
35307;BME280;21420;52.196;21.416;2023-04-25T04:54:59;99016.83;;;11.66;57.41
35307;BME280;21420;52.196;21.416;2023-04-25T04:57:52;99014.54;;;11.71;57.28
35307;BME280;21420;52.196;21.416;2023-04-25T05:00:29;99014.46;;;11.79;57.43
35307;BME280;21420;52.196;21.416;2023-04-25T05:03:34;99013.58;;;11.90;57.33
35307;BME280;21420;52.196;21.416;2023-04-25T05:06:36;99012.02;;;12.00;57.38
35307;BME280;21420;52.196;21.416;2023-04-25T05:09:38;99005.04;;;12.10;57.42
35307;BME280;21420;52.196;21.416;2023-04-25T05:12:24;99000.33;;;12.17;57.42
35307;BME280;21420;52.196;21.416;2023-04-25T05:15:11;98999.14;;;12.26;57.49
35307;BME280;21420;52.196;21.416;2023-04-25T05:17:52;98996.32;;;12.37;57.39
35307;BME280;21420;52.196;21.416;2023-04-25T05:20:39;99000.73;;;12.51;57.69
35307;BME280;21420;52.196;21.416;2023-04-25T05:23:38;99004.68;;;12.67;57.61
35307;BME280;21420;52.196;21.416;2023-04-25T05:26:24;99002.48;;;12.81;57.79
35307;BME280;21420;52.196;21.416;2023-04-25T05:29:01;99004.02;;;13.04;57.88
35307;BME280;21420;52.196;21.416;2023-04-25T05:31:36;99006.05;;;13.34;58.01
35307;BME280;21420;52.196;21.416;2023-04-25T05:34:08;99001.58;;;13.65;58.19
35307;BME280;21420;52.196;21.416;2023-04-25T05:36:47;99001.94;;;14.04;58.40
35307;BME280;21420;52.196;21.416;2023-04-25T05:39:16;99005.17;;;14.34;58.12
35307;BME280;21420;52.196;21.416;2023-04-25T05:42:02;99007.54;;;14.35;57.44
35307;BME280;21420;52.196;21.416;2023-04-25T05:44:48;99010.76;;;14.31;57.26
35307;BME280;21420;52.196;21.416;2023-04-25T05:47:30;99008.16;;;14.29;57.16
35307;BME280;21420;52.196;21.416;2023-04-25T05:50:05;99011.00;;;14.30;57.02
35307;BME280;21420;52.196;21.416;2023-04-25T05:53:11;99014.61;;;14.33;56.99
35307;BME280;21420;52.196;21.416;2023-04-25T05:55:40;99011.55;;;14.43;57.14
35307;BME280;21420;52.196;21.416;2023-04-25T05:58:36;99012.95;;;14.46;56.84
35307;BME280;21420;52.196;21.416;2023-04-25T06:01:03;99010.75;;;14.43;56.73
35307;BME280;21420;52.196;21.416;2023-04-25T06:03:31;99011.30;;;14.47;56.79
35307;BME280;21420;52.196;21.416;2023-04-25T06:05:58;99012.23;;;14.52;56.66
35307;BME280;21420;52.196;21.416;2023-04-25T06:08:25;99014.31;;;14.55;56.59
35307;BME280;21420;52.196;21.416;2023-04-25T06:10:52;99014.35;;;14.79;57.15
35307;BME280;21420;52.196;21.416;2023-04-25T06:13:18;99015.11;;;14.91;56.78
35307;BME280;21420;52.196;21.416;2023-04-25T06:15:45;99017.02;;;14.85;56.23
35307;BME280;21420;52.196;21.416;2023-04-25T06:18:12;99015.99;;;14.84;56.50
35307;BME280;21420;52.196;21.416;2023-04-25T06:20:38;99015.41;;;14.96;56.65
35307;BME280;21420;52.196;21.416;2023-04-25T06:23:05;99015.88;;;14.99;56.27
35307;BME280;21420;52.196;21.416;2023-04-25T06:25:39;99017.88;;;14.87;56.13
35307;BME280;21420;52.196;21.416;2023-04-25T06:28:06;99020.49;;;14.76;55.94
35307;BME280;21420;52.196;21.416;2023-04-25T06:30:33;99022.79;;;14.55;55.78
35307;BME280;21420;52.196;21.416;2023-04-25T06:33:04;99026.16;;;14.48;55.80
35307;BME280;21420;52.196;21.416;2023-04-25T06:35:31;99030.89;;;14.52;56.08
35307;BME280;21420;52.196;21.416;2023-04-25T06:37:57;99034.05;;;14.55;55.95
35307;BME280;21420;52.196;21.416;2023-04-25T06:40:25;99035.22;;;14.48;56.05
35307;BME280;21420;52.196;21.416;2023-04-25T06:42:51;99039.00;;;14.44;55.86
35307;BME280;21420;52.196;21.416;2023-04-25T06:45:38;99042.93;;;14.22;55.54
35307;BME280;21420;52.196;21.416;2023-04-25T06:48:06;99044.02;;;14.06;55.36
35307;BME280;21420;52.196;21.416;2023-04-25T06:50:33;99047.91;;;13.87;55.36
35307;BME280;21420;52.196;21.416;2023-04-25T06:53:00;99050.33;;;13.76;55.67
35307;BME280;21420;52.196;21.416;2023-04-25T06:55:28;99047.35;;;13.79;55.92
35307;BME280;21420;52.196;21.416;2023-04-25T06:58:04;99048.36;;;13.77;55.84
35307;BME280;21420;52.196;21.416;2023-04-25T07:01:06;99043.42;;;13.80;55.96
35307;BME280;21420;52.196;21.416;2023-04-25T07:03:33;99047.44;;;13.84;55.95
35307;BME280;21420;52.196;21.416;2023-04-25T07:06:04;99046.27;;;13.97;56.25
35307;BME280;21420;52.196;21.416;2023-04-25T07:08:31;99048.04;;;14.13;56.43
35307;BME280;21420;52.196;21.416;2023-04-25T07:10:58;99050.16;;;14.26;56.48
35307;BME280;21420;52.196;21.416;2023-04-25T07:13:25;99054.98;;;14.29;55.98
35307;BME280;21420;52.196;21.416;2023-04-25T07:15:52;99054.73;;;14.15;55.67
35307;BME280;21420;52.196;21.416;2023-04-25T07:18:20;99055.18;;;14.00;55.54
35307;BME280;21420;52.196;21.416;2023-04-25T07:20:46;99052.12;;;14.02;55.77
35307;BME280;21420;52.196;21.416;2023-04-25T07:23:13;99050.40;;;14.17;56.03
35307;BME280;21420;52.196;21.416;2023-04-25T07:25:41;99055.20;;;14.27;56.03
35307;BME280;21420;52.196;21.416;2023-04-25T07:28:07;99057.55;;;14.27;55.88
35307;BME280;21420;52.196;21.416;2023-04-25T07:30:35;99056.61;;;14.24;55.75
35307;BME280;21420;52.196;21.416;2023-04-25T07:33:03;99057.55;;;14.11;55.49
35307;BME280;21420;52.196;21.416;2023-04-25T07:35:33;99055.98;;;14.04;55.52
35307;BME280;21420;52.196;21.416;2023-04-25T07:37:59;99057.52;;;13.93;55.55
35307;BME280;21420;52.196;21.416;2023-04-25T07:40:26;99058.63;;;13.92;55.70
35307;BME280;21420;52.196;21.416;2023-04-25T07:42:57;99060.83;;;13.96;55.66
35307;BME280;21420;52.196;21.416;2023-04-25T07:45:32;99060.92;;;14.01;55.81
35307;BME280;21420;52.196;21.416;2023-04-25T07:47:59;99063.45;;;14.06;55.92
35307;BME280;21420;52.196;21.416;2023-04-25T07:50:27;99067.70;;;14.11;55.96
35307;BME280;21420;52.196;21.416;2023-04-25T07:52:54;99068.17;;;14.21;55.90
35307;BME280;21420;52.196;21.416;2023-04-25T07:55:25;99066.21;;;14.37;56.14
35307;BME280;21420;52.196;21.416;2023-04-25T07:58:02;99066.55;;;14.69;56.27
35307;BME280;21420;52.196;21.416;2023-04-25T08:00:31;99070.93;;;14.86;56.42
35307;BME280;21420;52.196;21.416;2023-04-25T08:03:34;99067.83;;;15.02;56.04
35307;BME280;21420;52.196;21.416;2023-04-25T08:06:03;99074.20;;;15.07;55.63
35307;BME280;21420;52.196;21.416;2023-04-25T08:08:37;99070.45;;;15.01;55.61
35307;BME280;21420;52.196;21.416;2023-04-25T08:11:05;99067.08;;;15.23;56.22
35307;BME280;21420;52.196;21.416;2023-04-25T08:13:32;99071.00;;;15.45;55.96
35307;BME280;21420;52.196;21.416;2023-04-25T08:15:58;99075.11;;;15.41;55.37
35307;BME280;21420;52.196;21.416;2023-04-25T08:18:25;99077.46;;;15.47;55.71
35307;BME280;21420;52.196;21.416;2023-04-25T08:20:52;99081.72;;;15.49;55.37
35307;BME280;21420;52.196;21.416;2023-04-25T08:23:19;99080.06;;;15.48;55.38
35307;BME280;21420;52.196;21.416;2023-04-25T08:25:51;99073.21;;;15.46;55.38
35307;BME280;21420;52.196;21.416;2023-04-25T08:28:20;99072.05;;;15.38;54.82
35307;BME280;21420;52.196;21.416;2023-04-25T08:30:47;99075.70;;;15.05;54.47
35307;BME280;21420;52.196;21.416;2023-04-25T08:33:14;99078.73;;;14.78;54.24
35307;BME280;21420;52.196;21.416;2023-04-25T08:35:49;99082.92;;;14.56;54.25
35307;BME280;21420;52.196;21.416;2023-04-25T08:38:17;99081.40;;;14.37;54.32
35307;BME280;21420;52.196;21.416;2023-04-25T08:40:44;99083.45;;;14.38;54.62
35307;BME280;21420;52.196;21.416;2023-04-25T08:43:20;99082.52;;;14.52;54.89
35307;BME280;21420;52.196;21.416;2023-04-25T08:45:47;99074.34;;;14.63;55.21
35307;BME280;21420;52.196;21.416;2023-04-25T08:48:22;99079.69;;;14.83;55.25
35307;BME280;21420;52.196;21.416;2023-04-25T08:50:53;99083.13;;;14.95;55.12
35307;BME280;21420;52.196;21.416;2023-04-25T08:53:31;99086.23;;;15.18;55.40
35307;BME280;21420;52.196;21.416;2023-04-25T08:56:01;99090.46;;;15.25;55.20
35307;BME280;21420;52.196;21.416;2023-04-25T08:58:33;99086.48;;;15.39;55.25
35307;BME280;21420;52.196;21.416;2023-04-25T09:01:01;99089.50;;;15.51;54.96
35307;BME280;21420;52.196;21.416;2023-04-25T09:03:30;99092.33;;;15.57;55.03
35307;BME280;21420;52.196;21.416;2023-04-25T09:05:57;99098.69;;;15.61;54.87
35307;BME280;21420;52.196;21.416;2023-04-25T09:08:24;99099.91;;;15.52;54.47
35307;BME280;21420;52.196;21.416;2023-04-25T09:10:51;99107.75;;;15.38;54.16
35307;BME280;21420;52.196;21.416;2023-04-25T09:13:27;99114.42;;;15.19;54.21
35307;BME280;21420;52.196;21.416;2023-04-25T09:16:14;99114.05;;;15.07;54.49
35307;BME280;21420;52.196;21.416;2023-04-25T09:18:58;99119.59;;;14.88;54.17
35307;BME280;21420;52.196;21.416;2023-04-25T09:21:24;99119.45;;;14.69;54.09
35307;BME280;21420;52.196;21.416;2023-04-25T09:23:51;99123.35;;;14.43;53.80
35307;BME280;21420;52.196;21.416;2023-04-25T09:26:20;99127.93;;;14.13;53.65
35307;BME280;21420;52.196;21.416;2023-04-25T09:28:48;99128.23;;;13.80;53.54
35307;BME280;21420;52.196;21.416;2023-04-25T09:31:26;99132.61;;;13.41;53.30
35307;BME280;21420;52.196;21.416;2023-04-25T09:34:00;99125.21;;;13.02;53.35
35307;BME280;21420;52.196;21.416;2023-04-25T09:36:30;99129.11;;;12.78;53.63
35307;BME280;21420;52.196;21.416;2023-04-25T09:39:16;99132.35;;;12.58;53.93
35307;BME280;21420;52.196;21.416;2023-04-25T09:41:53;99128.75;;;12.50;54.28
35307;BME280;21420;52.196;21.416;2023-04-25T09:44:24;99133.20;;;12.51;54.60
35307;BME280;21420;52.196;21.416;2023-04-25T09:46:52;99131.02;;;12.50;54.69
35307;BME280;21420;52.196;21.416;2023-04-25T09:49:23;99136.27;;;12.59;54.88
35307;BME280;21420;52.196;21.416;2023-04-25T09:52:02;99137.85;;;12.61;54.93
35307;BME280;21420;52.196;21.416;2023-04-25T09:54:40;99145.36;;;12.60;54.91
35307;BME280;21420;52.196;21.416;2023-04-25T09:57:14;99148.09;;;12.66;55.42
35307;BME280;21420;52.196;21.416;2023-04-25T09:59:47;99151.52;;;12.82;55.54
35307;BME280;21420;52.196;21.416;2023-04-25T10:02:18;99154.02;;;13.00;55.80
35307;BME280;21420;52.196;21.416;2023-04-25T10:04:50;99157.05;;;13.19;55.82
35307;BME280;21420;52.196;21.416;2023-04-25T10:07:35;99160.38;;;13.35;55.70
35307;BME280;21420;52.196;21.416;2023-04-25T10:10:07;99160.71;;;13.48;55.85
35307;BME280;21420;52.196;21.416;2023-04-25T10:12:35;99153.34;;;13.52;55.59
35307;BME280;21420;52.196;21.416;2023-04-25T10:15:03;99154.48;;;13.74;55.85
35307;BME280;21420;52.196;21.416;2023-04-25T10:17:31;99156.89;;;13.94;55.89
35307;BME280;21420;52.196;21.416;2023-04-25T10:20:01;99159.02;;;13.94;55.57
35307;BME280;21420;52.196;21.416;2023-04-25T10:22:35;99162.34;;;13.99;55.70
35307;BME280;21420;52.196;21.416;2023-04-25T10:25:04;99160.20;;;13.99;55.54
35307;BME280;21420;52.196;21.416;2023-04-25T10:27:34;99161.48;;;14.01;55.56
35307;BME280;21420;52.196;21.416;2023-04-25T10:30:13;99168.18;;;14.05;55.54
35307;BME280;21420;52.196;21.416;2023-04-25T10:32:42;99166.52;;;13.83;55.16
35307;BME280;21420;52.196;21.416;2023-04-25T10:35:14;99166.98;;;13.63;54.93
35307;BME280;21420;52.196;21.416;2023-04-25T10:40:30;99161.45;;;13.74;55.48
35307;BME280;21420;52.196;21.416;2023-04-25T10:43:36;99162.43;;;13.80;55.64
35307;BME280;21420;52.196;21.416;2023-04-25T10:48:57;99162.52;;;13.64;55.16
35307;BME280;21420;52.196;21.416;2023-04-25T10:51:29;99158.08;;;13.73;55.53
35307;BME280;21420;52.196;21.416;2023-04-25T10:54:09;99162.31;;;13.92;55.73
35307;BME280;21420;52.196;21.416;2023-04-25T10:59:13;99165.55;;;13.95;55.64
35307;BME280;21420;52.196;21.416;2023-04-25T11:01:44;99163.90;;;13.97;55.53
35307;BME280;21420;52.196;21.416;2023-04-25T11:04:45;99163.38;;;14.02;55.58
35307;BME280;21420;52.196;21.416;2023-04-25T11:07:28;99172.30;;;14.19;55.72
35307;BME280;21420;52.196;21.416;2023-04-25T11:10:05;99169.70;;;14.14;55.35
35307;BME280;21420;52.196;21.416;2023-04-25T11:12:34;99167.31;;;14.03;55.29
35307;BME280;21420;52.196;21.416;2023-04-25T11:15:08;99162.73;;;14.04;55.45
35307;BME280;21420;52.196;21.416;2023-04-25T11:17:39;99160.17;;;14.11;55.45
35307;BME280;21420;52.196;21.416;2023-04-25T11:20:08;99160.71;;;14.09;55.21
35307;BME280;21420;52.196;21.416;2023-04-25T11:22:40;99158.17;;;14.00;55.20
35307;BME280;21420;52.196;21.416;2023-04-25T11:25:11;99161.80;;;14.02;55.40
35307;BME280;21420;52.196;21.416;2023-04-25T11:27:54;99163.45;;;14.06;55.38
35307;BME280;21420;52.196;21.416;2023-04-25T11:30:27;99163.23;;;13.88;54.87
35307;BME280;21420;52.196;21.416;2023-04-25T11:32:56;99160.60;;;13.76;54.90
35307;BME280;21420;52.196;21.416;2023-04-25T11:35:26;99169.46;;;13.68;54.83
35307;BME280;21420;52.196;21.416;2023-04-25T11:37:55;99173.70;;;13.51;54.71
35307;BME280;21420;52.196;21.416;2023-04-25T11:40:25;99174.99;;;13.34;54.57
35307;BME280;21420;52.196;21.416;2023-04-25T11:42:55;99172.97;;;13.27;55.08
35307;BME280;21420;52.196;21.416;2023-04-25T11:45:23;99179.63;;;13.35;55.00
35307;BME280;21420;52.196;21.416;2023-04-25T11:47:54;99188.41;;;13.03;54.53
35307;BME280;21420;52.196;21.416;2023-04-25T11:50:25;99185.89;;;12.81;54.86
35307;BME280;21420;52.196;21.416;2023-04-25T11:52:58;99184.17;;;12.74;54.99
35307;BME280;21420;52.196;21.416;2023-04-25T11:55:31;99185.59;;;12.65;54.90
35307;BME280;21420;52.196;21.416;2023-04-25T11:58:02;99183.86;;;12.55;54.99
35307;BME280;21420;52.196;21.416;2023-04-25T12:07:56;99171.54;;;12.24;55.40
35307;BME280;21420;52.196;21.416;2023-04-25T12:10:24;99174.05;;;12.17;55.47
35307;BME280;21420;52.196;21.416;2023-04-25T12:12:52;99175.06;;;12.16;55.48
35307;BME280;21420;52.196;21.416;2023-04-25T12:15:24;99172.71;;;12.16;55.71
35307;BME280;21420;52.196;21.416;2023-04-25T12:17:53;99173.32;;;12.20;55.91
35307;BME280;21420;52.196;21.416;2023-04-25T12:20:24;99169.89;;;12.46;56.42
35307;BME280;21420;52.196;21.416;2023-04-25T12:22:52;99169.10;;;12.82;56.70
35307;BME280;21420;52.196;21.416;2023-04-25T12:25:38;99167.38;;;13.03;56.34
35307;BME280;21420;52.196;21.416;2023-04-25T12:28:21;99165.86;;;13.12;56.42
35307;BME280;21420;52.196;21.416;2023-04-25T12:31:03;99162.87;;;13.29;56.43
35307;BME280;21420;52.196;21.416;2023-04-25T12:33:35;99159.50;;;13.55;56.62
35307;BME280;21420;52.196;21.416;2023-04-25T12:36:04;99164.64;;;13.66;56.30
35307;BME280;21420;52.196;21.416;2023-04-25T12:38:41;99162.27;;;13.82;56.37
35307;BME280;21420;52.196;21.416;2023-04-25T12:41:08;99161.30;;;13.95;56.21
35307;BME280;21420;52.196;21.416;2023-04-25T12:43:35;99155.06;;;13.87;55.75
35307;BME280;21420;52.196;21.416;2023-04-25T12:46:02;99158.77;;;13.85;55.79
35307;BME280;21420;52.196;21.416;2023-04-25T12:48:29;99156.71;;;13.90;55.97
35307;BME280;21420;52.196;21.416;2023-04-25T12:50:56;99157.86;;;13.99;56.06
35307;BME280;21420;52.196;21.416;2023-04-25T12:53:23;99154.27;;;14.03;56.06
35307;BME280;21420;52.196;21.416;2023-04-25T12:55:52;99155.08;;;14.14;56.04
35307;BME280;21420;52.196;21.416;2023-04-25T12:58:20;99147.58;;;14.08;55.68
35307;BME280;21420;52.196;21.416;2023-04-25T13:00:47;99145.02;;;14.17;55.99
35307;BME280;21420;52.196;21.416;2023-04-25T13:03:14;99144.16;;;14.22;55.60
35307;BME280;21420;52.196;21.416;2023-04-25T13:05:42;99141.08;;;14.17;55.35
35307;BME280;21420;52.196;21.416;2023-04-25T13:08:09;99137.79;;;14.18;55.56
35307;BME280;21420;52.196;21.416;2023-04-25T13:10:36;99136.27;;;14.12;55.11
35307;BME280;21420;52.196;21.416;2023-04-25T13:13:05;99135.80;;;13.88;54.72
35307;BME280;21420;52.196;21.416;2023-04-25T13:15:31;99138.24;;;13.67;54.77
35307;BME280;21420;52.196;21.416;2023-04-25T13:17:58;99136.42;;;13.50;54.74
35307;BME280;21420;52.196;21.416;2023-04-25T13:20:25;99136.40;;;13.32;54.70
35307;BME280;21420;52.196;21.416;2023-04-25T13:22:52;99129.69;;;13.15;54.59
35307;BME280;21420;52.196;21.416;2023-04-25T13:25:19;99131.60;;;13.06;54.65
35307;BME280;21420;52.196;21.416;2023-04-25T13:27:46;99132.40;;;12.96;54.76
35307;BME280;21420;52.196;21.416;2023-04-25T13:30:13;99133.32;;;12.82;54.79
35307;BME280;21420;52.196;21.416;2023-04-25T13:32:40;99129.54;;;12.72;54.88
35307;BME280;21420;52.196;21.416;2023-04-25T13:35:09;99131.73;;;12.69;54.92